createdAt,value
2023-02-02T00:01:35.364Z,97938.09
2023-02-02T00:04:02.090Z,97930.47
2023-02-02T00:06:30.289Z,97914.28
2023-02-02T00:09:01.771Z,97922.81
2023-02-02T00:11:28.587Z,97931.34
2023-02-02T00:13:55.156Z,97944.00
2023-02-02T00:16:27.524Z,97946.53
2023-02-02T00:19:02.402Z,97943.19
2023-02-02T00:21:29.185Z,97925.31
2023-02-02T00:23:56.152Z,97919.41
2023-02-02T00:26:22.834Z,97909.19
2023-02-02T00:28:49.437Z,97904.81
2023-02-02T00:31:16.145Z,97910.72
2023-02-02T00:33:49.701Z,97915.09
2023-02-02T00:36:17.584Z,97920.97
2023-02-02T00:38:44.219Z,97919.38
2023-02-02T00:41:11.812Z,97929.56
2023-02-02T00:43:38.340Z,97940.66
2023-02-02T00:46:05.778Z,97944.03
2023-02-02T00:48:32.512Z,97953.53
2023-02-02T00:51:04.145Z,97949.25
2023-02-02T00:53:33.508Z,97943.28
2023-02-02T00:56:02.998Z,97937.31
2023-02-02T00:58:29.485Z,97940.66
2023-02-02T01:00:56.775Z,97944.03
2023-02-02T01:03:23.347Z,97938.00
2023-02-02T01:05:52.999Z,97939.59
2023-02-02T01:08:22.000Z,97943.13
2023-02-02T01:10:48.561Z,97941.34
2023-02-02T01:13:15.157Z,97939.59
2023-02-02T01:15:41.714Z,97942.13
2023-02-02T01:18:08.237Z,97941.22
2023-02-02T01:20:34.965Z,97948.91
2023-02-02T01:23:01.545Z,97940.31
2023-02-02T01:25:28.140Z,97938.75
2023-02-02T01:27:54.711Z,97934.38
2023-02-02T01:30:25.795Z,97940.44
2023-02-02T01:32:52.282Z,97933.50
2023-02-02T01:35:21.920Z,97929.94
2023-02-02T01:37:52.730Z,97941.91
2023-02-02T01:40:19.489Z,97929.09
2023-02-02T01:42:47.160Z,97931.66
2023-02-02T01:45:20.248Z,97917.16
2023-02-02T01:47:52.242Z,97931.72
2023-02-02T01:50:21.765Z,97934.28
2023-02-02T01:52:51.713Z,97936.94
2023-02-02T01:55:24.643Z,97945.50
2023-02-02T01:58:11.569Z,97935.22
2023-02-02T02:00:41.299Z,97937.84
2023-02-02T02:03:12.560Z,97943.78
2023-02-02T02:05:44.564Z,97937.03
2023-02-02T02:08:22.074Z,97933.63
2023-02-02T02:10:51.486Z,97942.19
2023-02-02T02:13:20.768Z,97934.50
2023-02-02T02:16:18.763Z,97933.69
2023-02-02T02:18:47.933Z,97940.59
2023-02-02T02:22:24.178Z,97948.28
2023-02-02T02:25:24.698Z,97955.09
2023-02-02T02:28:26.760Z,97948.19
2023-02-02T02:31:09.575Z,97957.56
2023-02-02T02:33:47.093Z,97932.81
2023-02-02T02:36:49.177Z,97943.03
2023-02-02T02:39:36.475Z,97942.16
2023-02-02T02:42:28.594Z,97946.31
2023-02-02T02:44:58.456Z,97946.31
2023-02-02T02:47:25.892Z,97936.28
2023-02-02T02:49:52.499Z,97947.31
2023-02-02T02:52:19.045Z,97948.09
2023-02-02T02:54:53.219Z,97947.28
2023-02-02T02:57:49.171Z,97940.53
2023-02-02T03:00:24.541Z,97937.06
2023-02-02T03:03:14.310Z,97928.56
2023-02-02T03:06:02.240Z,97932.88
2023-02-02T03:08:50.524Z,97941.34
2023-02-02T03:11:18.000Z,97949.03
2023-02-02T03:13:44.725Z,97941.28
2023-02-02T03:16:11.948Z,97942.19
2023-02-02T03:18:39.353Z,97948.16
2023-02-02T03:21:06.033Z,97961.84
2023-02-02T03:23:32.564Z,97956.75
2023-02-02T03:25:59.820Z,97969.53
2023-02-02T03:28:28.213Z,97974.66
2023-02-02T03:30:55.863Z,97978.00
2023-02-02T03:33:25.178Z,97976.28
2023-02-02T03:35:51.761Z,97980.63
2023-02-02T03:38:18.420Z,97979.66
2023-02-02T03:40:44.924Z,97977.09
2023-02-02T03:43:13.774Z,97971.97
2023-02-02T03:45:40.866Z,97976.19
2023-02-02T03:48:09.954Z,97981.22
2023-02-02T03:50:37.449Z,97970.94
2023-02-02T03:53:05.023Z,97975.25
2023-02-02T03:55:37.084Z,97977.78
2023-02-02T03:58:03.620Z,97964.91
2023-02-02T04:00:30.145Z,97973.41
2023-02-02T04:02:56.855Z,97965.75
2023-02-02T04:05:24.854Z,97976.91
2023-02-02T04:07:51.601Z,97968.34
2023-02-02T04:10:18.764Z,97970.06
2023-02-02T04:12:45.245Z,97978.72
2023-02-02T04:15:12.797Z,97963.44
2023-02-02T04:17:39.344Z,97975.41
2023-02-02T04:20:06.348Z,97983.13
2023-02-02T04:22:33.553Z,97991.69
2023-02-02T04:25:00.133Z,97993.44
2023-02-02T04:27:28.941Z,97986.59
2023-02-02T04:29:58.506Z,97981.53
2023-02-02T04:32:25.147Z,97990.94
2023-02-02T04:34:54.443Z,97982.41
2023-02-02T04:37:20.920Z,97993.44
2023-02-02T04:39:48.634Z,97999.41
2023-02-02T04:42:15.143Z,98007.09
2023-02-02T04:44:41.701Z,98009.88
2023-02-02T04:47:08.246Z,97997.94
2023-02-02T04:49:36.837Z,97997.00
2023-02-02T04:52:05.620Z,98009.03
2023-02-02T04:54:33.040Z,98008.25
2023-02-02T04:57:04.116Z,98009.22
2023-02-02T04:59:33.805Z,98016.91
2023-02-02T05:02:01.565Z,98019.50
2023-02-02T05:04:30.205Z,98018.63
2023-02-02T05:06:56.749Z,98020.28
2023-02-02T05:09:26.002Z,98020.97
2023-02-02T05:11:55.224Z,98021.84
2023-02-02T05:14:21.836Z,98028.69
2023-02-02T05:16:50.068Z,98027.84
2023-02-02T05:19:17.063Z,98027.94
2023-02-02T05:21:44.932Z,98027.88
2023-02-02T05:24:12.645Z,98033.63
2023-02-02T05:26:39.284Z,98038.69
2023-02-02T05:29:06.790Z,98040.44
2023-02-02T05:31:33.640Z,98038.72
2023-02-02T05:34:00.560Z,98045.59
2023-02-02T05:36:27.920Z,98043.09
2023-02-02T05:38:54.450Z,98045.53
2023-02-02T05:41:20.950Z,98041.25
2023-02-02T05:43:50.590Z,98040.31
2023-02-02T05:46:17.130Z,98045.50
2023-02-02T05:48:43.696Z,98038.72
2023-02-02T05:51:15.035Z,98037.91
2023-02-02T05:53:41.684Z,98040.31
2023-02-02T05:56:08.241Z,98036.16
2023-02-02T05:58:34.844Z,98035.31
2023-02-02T06:01:01.353Z,98043.00
2023-02-02T06:03:30.707Z,98039.69
2023-02-02T06:05:57.282Z,98030.22
2023-02-02T06:08:23.906Z,98014.84
2023-02-02T06:10:50.454Z,98021.56
2023-02-02T06:13:17.098Z,98019.06
2023-02-02T06:15:43.783Z,98026.91
2023-02-02T06:18:10.496Z,98033.63
2023-02-02T06:20:37.426Z,98032.72
2023-02-02T06:23:04.681Z,98032.78
2023-02-02T06:25:31.346Z,98037.06
2023-02-02T06:27:59.426Z,98027.63
2023-02-02T06:30:27.113Z,98031.84
2023-02-02T06:32:53.855Z,98028.44
2023-02-02T06:35:20.583Z,98040.41
2023-02-02T06:37:47.164Z,98037.78
2023-02-02T06:40:13.847Z,98031.94
2023-02-02T06:42:40.957Z,98031.91
2023-02-02T06:45:08.026Z,98037.88
2023-02-02T06:47:34.567Z,98050.69
2023-02-02T06:50:01.124Z,98047.34
2023-02-02T06:52:27.749Z,98052.47
2023-02-02T06:54:54.310Z,98051.56
2023-02-02T06:57:20.925Z,98059.28
2023-02-02T06:59:47.687Z,98066.88
2023-02-02T07:02:14.417Z,98070.22
2023-02-02T07:04:43.887Z,98067.75
2023-02-02T07:07:13.591Z,98074.53
2023-02-02T07:09:40.389Z,98076.19
2023-02-02T07:12:06.972Z,98074.50
2023-02-02T07:14:33.516Z,98077.25
2023-02-02T07:16:59.988Z,98076.28
2023-02-02T07:19:26.643Z,98078.03
2023-02-02T07:21:55.556Z,98089.88
2023-02-02T07:24:22.105Z,98081.31
2023-02-02T07:26:48.742Z,98092.31
2023-02-02T07:29:15.331Z,98085.56
2023-02-02T07:31:42.117Z,98088.91
2023-02-02T07:34:08.745Z,98082.06
2023-02-02T07:36:35.453Z,98090.56
2023-02-02T07:39:04.887Z,98086.28
2023-02-02T07:41:33.405Z,98104.22
2023-02-02T07:43:59.960Z,98106.78
2023-02-02T07:46:26.510Z,98097.34
2023-02-02T07:48:57.515Z,98099.81
2023-02-02T07:51:25.451Z,98095.44
2023-02-02T07:53:53.741Z,98100.59
2023-02-02T07:56:23.517Z,98103.91
2023-02-02T07:58:53.013Z,98098.00
2023-02-02T08:01:22.850Z,98092.84
2023-02-02T08:03:50.636Z,98091.06
2023-02-02T08:06:25.059Z,98093.63
2023-02-02T08:08:53.236Z,98083.38
2023-02-02T08:11:22.109Z,98077.31
2023-02-02T08:13:50.597Z,98095.22
2023-02-02T08:16:17.676Z,98089.28
2023-02-02T08:18:44.268Z,98089.19
2023-02-02T08:21:11.667Z,98093.25
2023-02-02T08:23:40.266Z,98095.84
2023-02-02T08:26:11.261Z,98097.41
2023-02-02T08:28:39.151Z,98099.88
2023-02-02T08:31:27.213Z,98110.25
2023-02-02T08:33:54.985Z,98111.97
2023-02-02T08:36:23.436Z,98102.44
2023-02-02T08:38:50.616Z,98110.75
2023-02-02T08:41:20.319Z,98114.19
2023-02-02T08:43:47.269Z,98114.91
2023-02-02T08:46:16.083Z,98108.81
2023-02-02T08:48:43.196Z,98112.28
2023-02-02T08:51:15.218Z,98116.50
2023-02-02T08:53:42.669Z,98119.25
2023-02-02T08:56:18.479Z,98114.91
2023-02-02T08:58:58.785Z,98119.22
2023-02-02T09:01:30.402Z,98116.66
2023-02-02T09:04:08.217Z,98117.53
2023-02-02T09:06:39.547Z,98121.69
2023-02-02T09:09:10.282Z,98107.25
2023-02-02T09:11:37.862Z,98123.44
2023-02-02T09:14:06.586Z,98129.44
2023-02-02T09:16:35.009Z,98127.84
2023-02-02T09:19:01.709Z,98135.63
2023-02-02T09:21:28.324Z,98136.41
2023-02-02T09:23:54.878Z,98130.56
2023-02-02T09:26:24.167Z,98144.19
2023-02-02T09:28:54.447Z,98134.69
2023-02-02T09:31:21.874Z,98150.97
2023-02-02T09:33:48.895Z,98132.91
2023-02-02T09:36:18.247Z,98132.00
2023-02-02T09:38:44.953Z,98135.47
2023-02-02T09:41:11.625Z,98132.84
2023-02-02T09:44:19.829Z,98141.44
2023-02-02T09:47:20.071Z,98132.78
2023-02-02T09:49:55.683Z,98142.91
2023-02-02T09:52:28.629Z,98142.91
2023-02-02T09:55:00.870Z,98142.88
2023-02-02T09:57:36.912Z,98129.97
2023-02-02T10:00:16.191Z,98135.94
2023-02-02T10:02:46.111Z,98126.44
2023-02-02T10:05:22.253Z,98137.66
2023-02-02T10:07:53.761Z,98138.47
2023-02-02T10:10:33.488Z,98141.94
2023-02-02T10:13:09.390Z,98147.16
2023-02-02T10:15:51.259Z,98135.16
2023-02-02T10:18:46.824Z,98147.06
2023-02-02T10:21:25.965Z,98147.88
2023-02-02T10:23:54.669Z,98133.25
2023-02-02T10:26:51.939Z,98153.78
2023-02-02T10:29:48.110Z,98134.97
2023-02-02T10:32:23.804Z,98144.47
2023-02-02T10:35:13.073Z,98139.25
2023-02-02T10:38:11.282Z,98130.69
2023-02-02T10:40:43.930Z,98142.78
2023-02-02T10:43:47.365Z,98147.03
2023-02-02T10:46:31.992Z,98151.38
2023-02-02T10:49:21.953Z,98136.88
2023-02-02T10:51:55.729Z,98130.81
2023-02-02T10:55:10.035Z,98143.63
2023-02-02T10:57:54.710Z,98147.81
2023-02-02T11:00:26.556Z,98148.75
2023-02-02T11:02:53.860Z,98151.22
2023-02-02T11:05:44.982Z,98147.81
2023-02-02T11:08:14.590Z,98145.25
2023-02-02T11:10:42.637Z,98149.53
2023-02-02T11:13:16.079Z,98141.00
2023-02-02T11:15:42.850Z,98150.34
2023-02-02T11:18:27.115Z,98142.63
2023-02-02T11:20:54.011Z,98140.00
2023-02-02T11:23:21.355Z,98147.72
2023-02-02T11:25:59.013Z,98139.22
2023-02-02T11:28:30.310Z,98136.69
2023-02-02T11:30:57.777Z,98142.66
2023-02-02T11:33:34.875Z,98137.44
2023-02-02T11:36:18.042Z,98136.63
2023-02-02T11:38:44.600Z,98134.03
2023-02-02T11:41:13.833Z,98124.53
2023-02-02T11:43:47.780Z,98126.22
2023-02-02T11:46:25.886Z,98131.47
2023-02-02T11:49:08.536Z,98121.97
2023-02-02T11:51:35.232Z,98136.63
2023-02-02T11:54:23.319Z,98128.72
2023-02-02T11:56:54.109Z,98114.22
2023-02-02T11:59:35.080Z,98115.97
2023-02-02T12:02:19.640Z,98115.81
2023-02-02T12:04:48.162Z,98126.97
2023-02-02T12:07:27.803Z,98121.75
2023-02-02T12:09:59.507Z,98116.50
2023-02-02T12:12:33.681Z,98125.91
2023-02-02T12:15:19.945Z,98125.84
2023-02-02T12:17:48.494Z,98115.50
2023-02-02T12:20:34.862Z,98117.25
2023-02-02T12:23:25.359Z,98123.22
2023-02-02T12:26:08.907Z,98114.66
2023-02-02T12:28:53.865Z,98124.97
2023-02-02T12:31:38.253Z,98115.53
2023-02-02T12:34:15.847Z,98133.44
2023-02-02T12:36:51.425Z,98119.78
2023-02-02T12:39:23.640Z,98128.41
2023-02-02T12:41:58.888Z,98120.66
2023-02-02T12:44:50.970Z,98121.41
2023-02-02T12:47:30.226Z,98141.06
2023-02-02T12:50:14.989Z,98121.41
2023-02-02T12:52:59.103Z,98132.50
2023-02-02T12:55:34.625Z,98131.59
2023-02-02T12:58:12.624Z,98133.31
2023-02-02T13:01:16.686Z,98143.47
2023-02-02T13:07:27.171Z,98137.47
2023-02-02T13:10:15.221Z,98128.13
2023-02-02T13:12:48.140Z,98135.06
2023-02-02T13:15:23.894Z,98142.88
2023-02-02T13:17:59.416Z,98127.50
2023-02-02T13:20:43.889Z,98129.06
2023-02-02T13:23:34.027Z,98135.06
2023-02-02T13:26:06.829Z,98141.97
2023-02-02T13:28:43.316Z,98128.19
2023-02-02T13:31:29.248Z,98131.69
2023-02-02T13:34:21.713Z,98134.19
2023-02-02T13:37:04.402Z,98144.63
2023-02-02T13:39:38.447Z,98142.78
2023-02-02T13:42:16.924Z,98142.03
2023-02-02T13:44:49.781Z,98149.75
2023-02-02T13:47:34.544Z,98153.31
2023-02-02T13:50:07.371Z,98162.00
2023-02-02T13:52:48.799Z,98150.94
2023-02-02T13:56:01.949Z,98155.25
2023-02-02T13:58:55.310Z,98162.13
2023-02-02T14:01:23.830Z,98157.84
2023-02-02T14:03:55.925Z,98168.88
2023-02-02T14:06:27.785Z,98170.53
2023-02-02T14:08:57.516Z,98177.31
2023-02-02T14:11:35.708Z,98187.75
2023-02-02T14:14:33.429Z,98201.41
2023-02-02T14:17:06.955Z,98202.56
2023-02-02T14:19:33.428Z,98189.13
2023-02-02T14:22:18.781Z,98179.84
2023-02-02T14:24:50.024Z,98182.44
2023-02-02T14:27:16.585Z,98195.25
2023-02-02T14:29:46.934Z,98198.69
2023-02-02T14:32:29.121Z,98204.56
2023-02-02T14:35:08.950Z,98202.91
2023-02-02T14:37:53.681Z,98203.84
2023-02-02T14:40:26.489Z,98211.59
2023-02-02T14:43:36.900Z,98207.31
2023-02-02T14:46:15.456Z,98200.44
2023-02-02T14:49:07.024Z,98212.38
2023-02-02T14:51:46.043Z,98201.34
2023-02-02T14:54:22.012Z,98209.84
2023-02-02T14:56:52.998Z,98194.41
2023-02-02T14:59:28.083Z,98208.09
2023-02-02T15:02:30.446Z,98200.53
2023-02-02T15:05:34.112Z,98209.94
2023-02-02T15:08:24.549Z,98214.34
2023-02-02T15:10:54.082Z,98224.63
2023-02-02T15:13:37.672Z,98230.69
2023-02-02T15:16:14.498Z,98239.25
2023-02-02T15:18:45.551Z,98247.84
2023-02-02T15:21:17.335Z,98254.66
2023-02-02T15:23:46.422Z,98271.75
2023-02-02T15:26:24.974Z,98275.34
2023-02-02T15:28:54.478Z,98285.56
2023-02-02T15:31:29.562Z,98278.66
2023-02-02T15:34:01.130Z,98280.47
2023-02-02T15:36:32.686Z,98289.88
2023-02-02T15:39:04.658Z,98284.81
2023-02-02T15:41:42.568Z,98294.22
2023-02-02T15:44:20.091Z,98304.50
2023-02-02T15:46:47.209Z,98306.25
2023-02-02T15:49:36.020Z,98314.84
2023-02-02T15:52:21.608Z,98325.97
2023-02-02T15:54:51.764Z,98334.53
2023-02-02T15:57:35.196Z,98343.03
2023-02-02T16:00:30.301Z,98347.41
2023-02-02T16:03:18.850Z,98357.66
2023-02-02T16:05:49.734Z,98370.47
2023-02-02T16:08:42.674Z,98372.22
2023-02-02T16:11:17.776Z,98375.69
2023-02-02T16:13:53.631Z,98378.25
2023-02-02T16:16:26.580Z,98380.81
2023-02-02T16:19:03.504Z,98385.09
2023-02-02T16:21:30.905Z,98388.53
2023-02-02T16:23:58.408Z,98389.38
2023-02-02T16:26:29.025Z,98401.41
2023-02-02T16:28:56.397Z,98405.69
2023-02-02T16:31:23.158Z,98409.91
2023-02-02T16:33:49.889Z,98419.28
2023-02-02T16:36:24.506Z,98426.09
2023-02-02T16:38:52.822Z,98423.53
2023-02-02T16:41:29.995Z,98436.34
2023-02-02T16:43:56.596Z,98425.28
2023-02-02T16:46:44.229Z,98437.28
2023-02-02T16:49:24.589Z,98432.13
2023-02-02T16:52:13.528Z,98431.25
2023-02-02T16:54:51.603Z,98437.25
2023-02-02T16:57:31.176Z,98434.69
2023-02-02T17:00:02.509Z,98450.88
2023-02-02T17:02:32.007Z,98450.91
2023-02-02T17:05:19.149Z,98456.84
2023-02-02T17:07:58.470Z,98458.53
2023-02-02T17:10:37.465Z,98466.25
2023-02-02T17:13:33.467Z,98483.34
2023-02-02T17:16:00.658Z,98500.44
2023-02-02T17:18:28.506Z,98491.06
2023-02-02T17:20:57.870Z,98497.03
2023-02-02T17:23:27.281Z,98503.84
2023-02-02T17:25:54.776Z,98502.16
2023-02-02T17:28:23.955Z,98504.69
2023-02-02T17:31:04.219Z,98508.94
2023-02-02T17:33:34.336Z,98520.91
2023-02-02T17:36:01.061Z,98534.59
2023-02-02T17:38:28.300Z,98527.75
2023-02-02T17:41:00.858Z,98547.38
2023-02-02T17:43:28.147Z,98551.56
2023-02-02T17:45:54.709Z,98559.22
2023-02-02T17:48:21.312Z,98562.66
2023-02-02T17:50:48.079Z,98564.31
2023-02-02T17:53:16.930Z,98572.00
2023-02-02T17:55:45.084Z,98572.91
2023-02-02T17:58:15.023Z,98582.28
2023-02-02T18:00:42.277Z,98587.44
2023-02-02T18:03:11.848Z,98586.53
2023-02-02T18:05:38.694Z,98592.50
2023-02-02T18:08:06.346Z,98597.63
2023-02-02T18:10:33.545Z,98591.63
2023-02-02T18:13:00.033Z,98598.44
2023-02-02T18:15:26.830Z,98597.59
2023-02-02T18:17:53.515Z,98603.56
2023-02-02T18:20:20.599Z,98605.25
2023-02-02T18:22:49.740Z,98597.56
2023-02-02T18:25:16.315Z,98612.16
2023-02-02T18:27:44.805Z,98607.06
2023-02-02T18:30:12.018Z,98602.81
2023-02-02T18:32:40.209Z,98615.59
2023-02-02T18:35:08.384Z,98614.72
2023-02-02T18:37:35.888Z,98613.91
2023-02-02T18:40:03.083Z,98621.59
2023-02-02T18:42:32.197Z,98622.50
2023-02-02T18:44:59.925Z,98631.03
2023-02-02T18:47:27.524Z,98625.91
2023-02-02T18:49:54.531Z,98621.66
2023-02-02T18:52:21.054Z,98622.50
2023-02-02T18:54:48.147Z,98634.41
2023-02-02T18:57:15.549Z,98647.31
2023-02-02T18:59:43.144Z,98649.91
2023-02-02T19:02:14.716Z,98661.00
2023-02-02T19:05:01.784Z,98668.69
2023-02-02T19:07:46.909Z,98671.31
2023-02-02T19:10:13.585Z,98679.84
2023-02-02T19:12:40.220Z,98673.88
2023-02-02T19:15:12.459Z,98677.31
2023-02-02T19:17:39.887Z,98689.28
2023-02-02T19:20:24.062Z,98690.13
2023-02-02T19:23:00.381Z,98697.81
2023-02-02T19:25:27.284Z,98695.28
2023-02-02T19:27:54.114Z,98703.78
2023-02-02T19:30:22.947Z,98711.50
2023-02-02T19:32:49.794Z,98702.97
2023-02-02T19:35:26.874Z,98708.13
2023-02-02T19:38:02.417Z,98707.25
2023-02-02T19:40:29.211Z,98702.16
2023-02-02T19:43:03.818Z,98708.94
2023-02-02T19:45:33.294Z,98709.81
2023-02-02T19:48:15.241Z,98712.38
2023-02-02T19:50:41.913Z,98708.09
2023-02-02T19:53:14.168Z,98714.09
2023-02-02T19:55:41.643Z,98723.47
2023-02-02T19:58:28.693Z,98725.19
2023-02-02T20:00:57.941Z,98723.47
2023-02-02T20:03:28.791Z,98726.06
2023-02-02T20:05:57.076Z,98737.16
2023-02-02T20:08:55.993Z,98738.00
2023-02-02T20:11:39.530Z,98749.09
2023-02-02T20:14:30.142Z,98754.25
2023-02-02T20:17:11.977Z,98753.38
2023-02-02T20:19:44.270Z,98756.81
2023-02-02T20:22:25.477Z,98752.56
2023-02-02T20:24:52.221Z,98758.50
2023-02-02T20:27:25.257Z,98750.84
2023-02-02T20:29:54.081Z,98748.28
2023-02-02T20:32:49.328Z,98750.00
2023-02-02T20:35:41.733Z,98762.84
2023-02-02T20:38:31.993Z,98767.97
2023-02-02T20:40:59.216Z,98782.50
2023-02-02T20:43:25.748Z,98789.34
2023-02-02T20:45:52.327Z,98793.59
2023-02-02T20:48:18.986Z,98805.56
2023-02-02T20:50:46.916Z,98810.66
2023-02-02T20:53:16.437Z,98807.25
2023-02-02T20:55:44.651Z,98821.75
2023-02-02T20:58:11.659Z,98828.56
2023-02-02T21:00:39.039Z,98829.41
2023-02-02T21:03:05.563Z,98829.38
2023-02-02T21:05:32.265Z,98830.19
2023-02-02T21:07:58.760Z,98833.56
2023-02-02T21:10:26.565Z,98841.25
2023-02-02T21:12:53.328Z,98848.03
2023-02-02T21:15:19.829Z,98842.03
2023-02-02T21:17:46.464Z,98858.25
2023-02-02T21:20:14.866Z,98854.81
2023-02-02T21:22:41.800Z,98848.81
2023-02-02T21:25:09.567Z,98865.84
2023-02-02T21:27:41.080Z,98866.63
2023-02-02T21:30:12.154Z,98871.75
2023-02-02T21:32:38.750Z,98870.03
2023-02-02T21:35:06.612Z,98868.31
2023-02-02T21:37:36.410Z,98881.88
2023-02-02T21:40:12.824Z,98885.31
2023-02-02T21:42:39.351Z,98875.88
2023-02-02T21:45:21.071Z,98876.75
2023-02-02T21:47:50.699Z,98886.06
2023-02-02T21:50:20.327Z,98885.22
2023-02-02T21:52:47.215Z,98872.41
2023-02-02T21:55:33.687Z,98891.09
2023-02-02T21:58:11.500Z,98895.31
2023-02-02T22:00:38.001Z,98890.19
2023-02-02T22:03:21.571Z,98902.06
2023-02-02T22:05:48.070Z,98903.81
2023-02-02T22:08:22.843Z,98909.78
2023-02-02T22:10:49.678Z,98911.50
2023-02-02T22:13:19.602Z,98911.41
2023-02-02T22:15:48.126Z,98917.38
2023-02-02T22:18:18.738Z,98927.63
2023-02-02T22:20:47.491Z,98924.25
2023-02-02T22:23:16.631Z,98923.38
2023-02-02T22:25:44.491Z,98918.25
2023-02-02T22:28:19.386Z,98923.25
2023-02-02T22:30:45.999Z,98925.75
2023-02-02T22:33:13.664Z,98935.16
2023-02-02T22:35:41.461Z,98940.25
2023-02-02T22:38:08.799Z,98944.53
2023-02-02T22:40:35.750Z,98942.00
2023-02-02T22:43:05.756Z,98947.03
2023-02-02T22:45:32.832Z,98946.94
2023-02-02T22:47:59.524Z,98958.06
2023-02-02T22:50:28.880Z,98952.94
2023-02-02T22:52:55.735Z,98957.19
2023-02-02T22:55:22.541Z,98965.69
2023-02-02T22:57:49.016Z,98969.00
2023-02-02T23:00:34.969Z,98970.75
2023-02-02T23:03:01.676Z,98975.00
2023-02-02T23:05:28.582Z,98986.88
2023-02-02T23:07:55.753Z,98980.03
2023-02-02T23:10:26.034Z,98977.44
2023-02-02T23:12:54.993Z,98994.44
2023-02-02T23:15:22.533Z,98986.69
2023-02-02T23:17:49.426Z,98998.56
2023-02-02T23:20:17.110Z,98999.47
2023-02-02T23:22:43.661Z,99007.13
2023-02-02T23:25:11.437Z,99013.94
2023-02-02T23:27:38.621Z,99012.22
2023-02-02T23:30:07.437Z,99019.09
2023-02-02T23:32:34.562Z,99023.31
2023-02-02T23:35:01.229Z,99025.78
2023-02-02T23:37:27.711Z,99026.63
2023-02-02T23:39:54.193Z,99041.06
2023-02-02T23:42:20.709Z,99049.56
2023-02-02T23:44:47.171Z,99051.28
2023-02-02T23:47:13.695Z,99050.38
2023-02-02T23:49:40.506Z,99049.53
2023-02-02T23:52:07.403Z,99058.03
2023-02-02T23:54:34.148Z,99063.06
2023-02-02T23:57:01.494Z,99064.78
2023-02-02T23:59:28.019Z,99072.44
